sensor_id;sensor_type;location;lat;lon;timestamp;temperature;humidity
23371;DHT22;11858;51.056;3.712;2022-10-15T00:00:28;15.30;99.90
23371;DHT22;11858;51.056;3.712;2022-10-15T00:02:54;15.20;99.90
23371;DHT22;11858;51.056;3.712;2022-10-15T00:05:20;15.10;99.90
23371;DHT22;11858;51.056;3.712;2022-10-15T00:07:46;15.10;99.90
23371;DHT22;11858;51.056;3.712;2022-10-15T00:10:12;15.10;99.90
23371;DHT22;11858;51.056;3.712;2022-10-15T00:12:38;15.20;99.90
23371;DHT22;11858;51.056;3.712;2022-10-15T00:15:05;15.10;99.90
23371;DHT22;11858;51.056;3.712;2022-10-15T00:17:32;15.10;99.90
23371;DHT22;11858;51.056;3.712;2022-10-15T00:19:58;15.20;99.90
23371;DHT22;11858;51.056;3.712;2022-10-15T00:22:23;15.20;99.90
23371;DHT22;11858;51.056;3.712;2022-10-15T00:24:49;15.30;99.90
23371;DHT22;11858;51.056;3.712;2022-10-15T00:27:14;15.10;99.90
23371;DHT22;11858;51.056;3.712;2022-10-15T00:29:40;15.20;99.90
23371;DHT22;11858;51.056;3.712;2022-10-15T00:32:06;15.10;99.90
23371;DHT22;11858;51.056;3.712;2022-10-15T00:34:32;15.10;99.90
23371;DHT22;11858;51.056;3.712;2022-10-15T00:36:57;15.10;99.90
23371;DHT22;11858;51.056;3.712;2022-10-15T00:39:23;15.10;99.90
23371;DHT22;11858;51.056;3.712;2022-10-15T00:41:49;15.00;99.90
23371;DHT22;11858;51.056;3.712;2022-10-15T00:46:48;15.10;99.90
23371;DHT22;11858;51.056;3.712;2022-10-15T00:49:25;15.00;99.90
23371;DHT22;11858;51.056;3.712;2022-10-15T00:51:58;14.90;99.90
23371;DHT22;11858;51.056;3.712;2022-10-15T00:54:26;14.80;99.90
23371;DHT22;11858;51.056;3.712;2022-10-15T00:56:54;14.80;99.90
23371;DHT22;11858;51.056;3.712;2022-10-15T00:59:23;14.70;99.90
23371;DHT22;11858;51.056;3.712;2022-10-15T01:01:49;14.70;99.90
23371;DHT22;11858;51.056;3.712;2022-10-15T01:04:15;14.70;99.90
23371;DHT22;11858;51.056;3.712;2022-10-15T01:06:43;14.60;99.90
23371;DHT22;11858;51.056;3.712;2022-10-15T01:09:10;14.50;99.90
23371;DHT22;11858;51.056;3.712;2022-10-15T01:11:41;14.40;99.90
23371;DHT22;11858;51.056;3.712;2022-10-15T01:14:39;14.30;99.90
23371;DHT22;11858;51.056;3.712;2022-10-15T01:25:01;14.30;99.90
23371;DHT22;11858;51.056;3.712;2022-10-15T01:27:35;14.30;99.90
23371;DHT22;11858;51.056;3.712;2022-10-15T01:30:21;14.30;99.90
23371;DHT22;11858;51.056;3.712;2022-10-15T01:35:47;14.30;99.90
23371;DHT22;11858;51.056;3.712;2022-10-15T01:38:21;14.20;99.90
23371;DHT22;11858;51.056;3.712;2022-10-15T01:40:56;14.10;99.90
23371;DHT22;11858;51.056;3.712;2022-10-15T01:44:17;14.20;99.90
23371;DHT22;11858;51.056;3.712;2022-10-15T01:46:39;14.10;99.90
23371;DHT22;11858;51.056;3.712;2022-10-15T01:49:06;14.10;99.90
23371;DHT22;11858;51.056;3.712;2022-10-15T01:51:34;14.00;99.90
23371;DHT22;11858;51.056;3.712;2022-10-15T01:54:01;14.00;99.90
23371;DHT22;11858;51.056;3.712;2022-10-15T01:56:31;13.90;99.90
23371;DHT22;11858;51.056;3.712;2022-10-15T01:58:57;13.90;99.90
23371;DHT22;11858;51.056;3.712;2022-10-15T02:01:23;14.10;99.90
23371;DHT22;11858;51.056;3.712;2022-10-15T02:03:50;14.00;99.90
23371;DHT22;11858;51.056;3.712;2022-10-15T02:06:33;14.00;99.90
23371;DHT22;11858;51.056;3.712;2022-10-15T02:09:14;14.10;99.90
23371;DHT22;11858;51.056;3.712;2022-10-15T02:11:57;14.20;99.90
23371;DHT22;11858;51.056;3.712;2022-10-15T02:14:39;14.00;99.90
23371;DHT22;11858;51.056;3.712;2022-10-15T02:17:08;14.10;99.90
23371;DHT22;11858;51.056;3.712;2022-10-15T02:20:35;14.10;99.90
23371;DHT22;11858;51.056;3.712;2022-10-15T02:22:38;14.10;99.90
23371;DHT22;11858;51.056;3.712;2022-10-15T02:25:14;14.20;99.90
23371;DHT22;11858;51.056;3.712;2022-10-15T02:27:42;14.30;99.90
23371;DHT22;11858;51.056;3.712;2022-10-15T02:30:09;14.40;99.90
23371;DHT22;11858;51.056;3.712;2022-10-15T02:32:37;14.30;99.90
23371;DHT22;11858;51.056;3.712;2022-10-15T02:35:05;14.30;99.90
23371;DHT22;11858;51.056;3.712;2022-10-15T02:37:32;14.30;99.90
23371;DHT22;11858;51.056;3.712;2022-10-15T02:39:59;14.50;99.90
23371;DHT22;11858;51.056;3.712;2022-10-15T02:42:25;14.40;99.90
23371;DHT22;11858;51.056;3.712;2022-10-15T02:44:51;14.40;99.90
23371;DHT22;11858;51.056;3.712;2022-10-15T02:47:17;14.50;99.90
23371;DHT22;11858;51.056;3.712;2022-10-15T02:49:43;14.60;99.90
23371;DHT22;11858;51.056;3.712;2022-10-15T02:52:08;14.60;99.90
23371;DHT22;11858;51.056;3.712;2022-10-15T02:54:34;14.60;99.90
23371;DHT22;11858;51.056;3.712;2022-10-15T02:57:00;14.70;99.90
23371;DHT22;11858;51.056;3.712;2022-10-15T02:59:25;14.60;99.90
23371;DHT22;11858;51.056;3.712;2022-10-15T03:01:51;14.60;99.90
23371;DHT22;11858;51.056;3.712;2022-10-15T03:04:17;14.60;99.90
23371;DHT22;11858;51.056;3.712;2022-10-15T03:06:42;14.70;99.90
23371;DHT22;11858;51.056;3.712;2022-10-15T03:09:08;14.70;99.90
23371;DHT22;11858;51.056;3.712;2022-10-15T03:11:34;14.60;99.90
23371;DHT22;11858;51.056;3.712;2022-10-15T03:13:59;14.50;99.90
23371;DHT22;11858;51.056;3.712;2022-10-15T03:16:25;14.40;99.90
23371;DHT22;11858;51.056;3.712;2022-10-15T03:18:50;14.30;99.90
23371;DHT22;11858;51.056;3.712;2022-10-15T03:21:16;14.40;99.90
23371;DHT22;11858;51.056;3.712;2022-10-15T03:23:42;14.40;99.90
23371;DHT22;11858;51.056;3.712;2022-10-15T03:26:07;14.30;99.90
23371;DHT22;11858;51.056;3.712;2022-10-15T03:28:33;14.20;99.90
23371;DHT22;11858;51.056;3.712;2022-10-15T03:30:59;14.30;99.90
23371;DHT22;11858;51.056;3.712;2022-10-15T03:33:24;14.40;99.90
23371;DHT22;11858;51.056;3.712;2022-10-15T03:35:50;14.50;99.90
23371;DHT22;11858;51.056;3.712;2022-10-15T03:38:17;14.50;99.90
23371;DHT22;11858;51.056;3.712;2022-10-15T03:40:44;14.40;99.90
23371;DHT22;11858;51.056;3.712;2022-10-15T03:43:10;14.50;99.90
23371;DHT22;11858;51.056;3.712;2022-10-15T03:45:35;14.40;99.90
23371;DHT22;11858;51.056;3.712;2022-10-15T03:48:01;14.50;99.90
23371;DHT22;11858;51.056;3.712;2022-10-15T03:50:27;14.40;99.90
23371;DHT22;11858;51.056;3.712;2022-10-15T03:52:52;14.50;99.90
23371;DHT22;11858;51.056;3.712;2022-10-15T03:55:18;14.60;99.90
23371;DHT22;11858;51.056;3.712;2022-10-15T03:57:43;14.60;99.90
23371;DHT22;11858;51.056;3.712;2022-10-15T04:00:11;14.60;99.90
23371;DHT22;11858;51.056;3.712;2022-10-15T04:02:38;14.40;99.90
23371;DHT22;11858;51.056;3.712;2022-10-15T04:05:03;14.30;99.90
23371;DHT22;11858;51.056;3.712;2022-10-15T04:07:29;14.30;99.90
23371;DHT22;11858;51.056;3.712;2022-10-15T04:09:55;14.30;99.90
23371;DHT22;11858;51.056;3.712;2022-10-15T04:12:20;14.50;99.90
23371;DHT22;11858;51.056;3.712;2022-10-15T04:14:46;14.40;99.90
23371;DHT22;11858;51.056;3.712;2022-10-15T04:17:12;14.40;99.90
23371;DHT22;11858;51.056;3.712;2022-10-15T04:19:37;14.40;99.90
23371;DHT22;11858;51.056;3.712;2022-10-15T04:22:03;14.50;99.90
23371;DHT22;11858;51.056;3.712;2022-10-15T04:24:29;14.50;99.90
23371;DHT22;11858;51.056;3.712;2022-10-15T04:26:55;14.60;99.90
23371;DHT22;11858;51.056;3.712;2022-10-15T04:29:20;14.70;99.90
23371;DHT22;11858;51.056;3.712;2022-10-15T04:31:46;14.70;99.90
23371;DHT22;11858;51.056;3.712;2022-10-15T04:34:11;14.50;99.90
23371;DHT22;11858;51.056;3.712;2022-10-15T04:36:37;14.50;99.90
23371;DHT22;11858;51.056;3.712;2022-10-15T04:39:04;14.50;99.90
23371;DHT22;11858;51.056;3.712;2022-10-15T04:41:30;14.30;99.90
23371;DHT22;11858;51.056;3.712;2022-10-15T04:43:56;14.40;99.90
23371;DHT22;11858;51.056;3.712;2022-10-15T04:46:22;14.30;99.90
23371;DHT22;11858;51.056;3.712;2022-10-15T04:48:48;14.40;99.90
23371;DHT22;11858;51.056;3.712;2022-10-15T04:51:19;14.30;99.90
23371;DHT22;11858;51.056;3.712;2022-10-15T04:53:45;14.40;99.90
23371;DHT22;11858;51.056;3.712;2022-10-15T04:56:13;14.60;99.90
23371;DHT22;11858;51.056;3.712;2022-10-15T04:58:41;14.60;99.90
23371;DHT22;11858;51.056;3.712;2022-10-15T05:01:09;14.50;99.90
23371;DHT22;11858;51.056;3.712;2022-10-15T05:03:38;14.50;99.90
23371;DHT22;11858;51.056;3.712;2022-10-15T05:06:13;14.40;99.90
23371;DHT22;11858;51.056;3.712;2022-10-15T05:08:40;14.60;99.90
23371;DHT22;11858;51.056;3.712;2022-10-15T05:11:21;14.60;99.90
23371;DHT22;11858;51.056;3.712;2022-10-15T05:13:47;14.60;99.90
23371;DHT22;11858;51.056;3.712;2022-10-15T05:16:18;14.40;99.90
23371;DHT22;11858;51.056;3.712;2022-10-15T05:18:47;14.30;99.90
23371;DHT22;11858;51.056;3.712;2022-10-15T05:21:14;14.30;99.90
23371;DHT22;11858;51.056;3.712;2022-10-15T05:23:40;14.20;99.90
23371;DHT22;11858;51.056;3.712;2022-10-15T05:26:09;14.00;99.90
23371;DHT22;11858;51.056;3.712;2022-10-15T05:28:35;14.10;99.90
23371;DHT22;11858;51.056;3.712;2022-10-15T05:31:09;14.00;99.90
23371;DHT22;11858;51.056;3.712;2022-10-15T05:33:35;14.00;99.90
23371;DHT22;11858;51.056;3.712;2022-10-15T05:36:28;14.10;99.90
23371;DHT22;11858;51.056;3.712;2022-10-15T05:38:57;14.10;99.90
23371;DHT22;11858;51.056;3.712;2022-10-15T05:41:24;14.00;99.90
23371;DHT22;11858;51.056;3.712;2022-10-15T05:43:51;14.00;99.90
23371;DHT22;11858;51.056;3.712;2022-10-15T05:46:18;14.00;99.90
23371;DHT22;11858;51.056;3.712;2022-10-15T05:48:52;13.90;99.90
23371;DHT22;11858;51.056;3.712;2022-10-15T05:51:18;13.80;99.90
23371;DHT22;11858;51.056;3.712;2022-10-15T05:53:44;13.90;99.90
23371;DHT22;11858;51.056;3.712;2022-10-15T05:56:12;13.80;99.90
23371;DHT22;11858;51.056;3.712;2022-10-15T05:58:37;13.90;99.90
23371;DHT22;11858;51.056;3.712;2022-10-15T06:01:08;14.00;99.90
23371;DHT22;11858;51.056;3.712;2022-10-15T06:03:34;14.00;99.90
23371;DHT22;11858;51.056;3.712;2022-10-15T06:06:00;14.20;99.90
23371;DHT22;11858;51.056;3.712;2022-10-15T06:08:27;14.10;99.90
23371;DHT22;11858;51.056;3.712;2022-10-15T06:10:53;14.00;99.90
23371;DHT22;11858;51.056;3.712;2022-10-15T06:13:20;14.10;99.90
23371;DHT22;11858;51.056;3.712;2022-10-15T06:15:46;14.20;99.90
23371;DHT22;11858;51.056;3.712;2022-10-15T06:18:12;14.30;99.90
23371;DHT22;11858;51.056;3.712;2022-10-15T06:20:43;14.30;99.90
23371;DHT22;11858;51.056;3.712;2022-10-15T06:23:14;14.20;99.90
23371;DHT22;11858;51.056;3.712;2022-10-15T06:25:40;14.20;99.90
23371;DHT22;11858;51.056;3.712;2022-10-15T06:28:06;14.30;99.90
23371;DHT22;11858;51.056;3.712;2022-10-15T06:30:32;14.30;99.90
23371;DHT22;11858;51.056;3.712;2022-10-15T06:32:58;14.40;99.90
23371;DHT22;11858;51.056;3.712;2022-10-15T06:35:24;14.60;99.90
23371;DHT22;11858;51.056;3.712;2022-10-15T06:37:51;14.50;99.90
23371;DHT22;11858;51.056;3.712;2022-10-15T06:40:18;14.60;99.90
23371;DHT22;11858;51.056;3.712;2022-10-15T06:42:43;14.60;99.90
23371;DHT22;11858;51.056;3.712;2022-10-15T06:45:09;14.60;99.90
23371;DHT22;11858;51.056;3.712;2022-10-15T06:47:36;14.70;99.90
23371;DHT22;11858;51.056;3.712;2022-10-15T06:50:04;14.80;99.90
23371;DHT22;11858;51.056;3.712;2022-10-15T06:52:31;14.80;99.90
23371;DHT22;11858;51.056;3.712;2022-10-15T06:54:57;14.70;99.90
23371;DHT22;11858;51.056;3.712;2022-10-15T06:57:22;14.80;99.90
23371;DHT22;11858;51.056;3.712;2022-10-15T06:59:50;14.80;99.90
23371;DHT22;11858;51.056;3.712;2022-10-15T07:02:16;14.80;99.90
23371;DHT22;11858;51.056;3.712;2022-10-15T07:04:44;14.70;99.90
23371;DHT22;11858;51.056;3.712;2022-10-15T07:07:09;14.70;99.90
23371;DHT22;11858;51.056;3.712;2022-10-15T07:09:35;14.80;99.90
23371;DHT22;11858;51.056;3.712;2022-10-15T07:12:01;14.70;99.90
23371;DHT22;11858;51.056;3.712;2022-10-15T07:14:27;14.60;99.90
23371;DHT22;11858;51.056;3.712;2022-10-15T07:16:52;14.70;99.90
23371;DHT22;11858;51.056;3.712;2022-10-15T07:19:18;14.70;99.90
23371;DHT22;11858;51.056;3.712;2022-10-15T07:21:44;14.70;99.90
23371;DHT22;11858;51.056;3.712;2022-10-15T07:24:09;14.70;99.90
23371;DHT22;11858;51.056;3.712;2022-10-15T07:26:35;14.80;99.90
23371;DHT22;11858;51.056;3.712;2022-10-15T07:29:01;14.80;99.90
23371;DHT22;11858;51.056;3.712;2022-10-15T07:31:27;14.70;99.90
23371;DHT22;11858;51.056;3.712;2022-10-15T07:33:53;14.70;99.90
23371;DHT22;11858;51.056;3.712;2022-10-15T07:36:18;14.70;99.90
23371;DHT22;11858;51.056;3.712;2022-10-15T07:38:45;14.70;99.90
23371;DHT22;11858;51.056;3.712;2022-10-15T07:41:11;14.70;99.90
23371;DHT22;11858;51.056;3.712;2022-10-15T07:43:37;14.80;99.90
23371;DHT22;11858;51.056;3.712;2022-10-15T07:46:03;15.00;99.90
23371;DHT22;11858;51.056;3.712;2022-10-15T07:48:30;14.80;99.90
23371;DHT22;11858;51.056;3.712;2022-10-15T07:51:01;14.80;99.90
23371;DHT22;11858;51.056;3.712;2022-10-15T07:53:28;14.80;99.90
23371;DHT22;11858;51.056;3.712;2022-10-15T07:55:57;14.80;99.90
23371;DHT22;11858;51.056;3.712;2022-10-15T07:58:24;14.80;99.90
23371;DHT22;11858;51.056;3.712;2022-10-15T08:00:50;14.90;99.90
23371;DHT22;11858;51.056;3.712;2022-10-15T08:03:15;14.80;99.90
23371;DHT22;11858;51.056;3.712;2022-10-15T08:05:41;14.80;99.90
23371;DHT22;11858;51.056;3.712;2022-10-15T08:08:06;14.80;99.90
23371;DHT22;11858;51.056;3.712;2022-10-15T08:10:32;14.80;99.90
23371;DHT22;11858;51.056;3.712;2022-10-15T08:12:58;14.90;99.90
23371;DHT22;11858;51.056;3.712;2022-10-15T08:15:23;15.00;99.90
23371;DHT22;11858;51.056;3.712;2022-10-15T08:17:49;14.90;99.90
23371;DHT22;11858;51.056;3.712;2022-10-15T08:20:14;15.00;99.90
23371;DHT22;11858;51.056;3.712;2022-10-15T08:22:40;15.00;99.90
23371;DHT22;11858;51.056;3.712;2022-10-15T08:25:06;15.10;99.90
23371;DHT22;11858;51.056;3.712;2022-10-15T08:27:32;15.30;99.90
23371;DHT22;11858;51.056;3.712;2022-10-15T08:29:57;15.30;99.90
23371;DHT22;11858;51.056;3.712;2022-10-15T08:32:23;15.30;99.90
23371;DHT22;11858;51.056;3.712;2022-10-15T08:34:48;15.50;99.90
23371;DHT22;11858;51.056;3.712;2022-10-15T08:37:14;15.50;99.90
23371;DHT22;11858;51.056;3.712;2022-10-15T08:39:40;15.30;99.90
23371;DHT22;11858;51.056;3.712;2022-10-15T08:42:15;15.40;99.90
23371;DHT22;11858;51.056;3.712;2022-10-15T08:45:03;15.40;99.90
23371;DHT22;11858;51.056;3.712;2022-10-15T08:47:39;15.60;99.90
23371;DHT22;11858;51.056;3.712;2022-10-15T08:50:32;15.60;99.90
23371;DHT22;11858;51.056;3.712;2022-10-15T08:53:00;15.70;99.90
23371;DHT22;11858;51.056;3.712;2022-10-15T08:55:30;15.70;99.90
23371;DHT22;11858;51.056;3.712;2022-10-15T09:00:49;15.90;99.90
23371;DHT22;11858;51.056;3.712;2022-10-15T09:11:12;16.10;99.90
23371;DHT22;11858;51.056;3.712;2022-10-15T09:13:41;16.20;99.90
23371;DHT22;11858;51.056;3.712;2022-10-15T09:16:14;16.40;99.90
23371;DHT22;11858;51.056;3.712;2022-10-15T09:18:43;16.30;99.90
23371;DHT22;11858;51.056;3.712;2022-10-15T09:21:09;16.50;99.90
23371;DHT22;11858;51.056;3.712;2022-10-15T09:23:36;16.60;99.90
23371;DHT22;11858;51.056;3.712;2022-10-15T09:28:46;16.80;99.90
23371;DHT22;11858;51.056;3.712;2022-10-15T09:31:15;16.90;99.90
23371;DHT22;11858;51.056;3.712;2022-10-15T09:33:58;17.00;99.90
23371;DHT22;11858;51.056;3.712;2022-10-15T09:36:40;17.20;99.90
23371;DHT22;11858;51.056;3.712;2022-10-15T09:42:12;17.10;99.90
23371;DHT22;11858;51.056;3.712;2022-10-15T09:44:42;17.10;99.90
23371;DHT22;11858;51.056;3.712;2022-10-15T09:47:26;17.20;99.90
23371;DHT22;11858;51.056;3.712;2022-10-15T09:49:52;17.30;99.90
23371;DHT22;11858;51.056;3.712;2022-10-15T09:58:07;17.70;99.90
23371;DHT22;11858;51.056;3.712;2022-10-15T10:03:25;17.70;99.90
23371;DHT22;11858;51.056;3.712;2022-10-15T10:06:19;17.90;99.90
23371;DHT22;11858;51.056;3.712;2022-10-15T10:11:15;18.10;99.90
23371;DHT22;11858;51.056;3.712;2022-10-15T10:13:58;18.00;99.90
23371;DHT22;11858;51.056;3.712;2022-10-15T10:16:25;18.10;99.90
23371;DHT22;11858;51.056;3.712;2022-10-15T10:19:03;18.30;99.90
23371;DHT22;11858;51.056;3.712;2022-10-15T10:21:33;18.80;99.90
23371;DHT22;11858;51.056;3.712;2022-10-15T10:24:29;19.20;99.90
23371;DHT22;11858;51.056;3.712;2022-10-15T10:26:58;19.30;99.90
23371;DHT22;11858;51.056;3.712;2022-10-15T10:29:25;19.30;99.90
23371;DHT22;11858;51.056;3.712;2022-10-15T10:31:51;19.20;99.90
23371;DHT22;11858;51.056;3.712;2022-10-15T10:34:26;19.10;99.90
23371;DHT22;11858;51.056;3.712;2022-10-15T10:36:53;19.10;99.90
23371;DHT22;11858;51.056;3.712;2022-10-15T10:39:33;19.10;99.90
23371;DHT22;11858;51.056;3.712;2022-10-15T10:42:03;19.10;99.90
23371;DHT22;11858;51.056;3.712;2022-10-15T10:44:38;19.20;99.90
23371;DHT22;11858;51.056;3.712;2022-10-15T10:49:50;19.00;99.90
23371;DHT22;11858;51.056;3.712;2022-10-15T10:52:29;19.50;99.90
23371;DHT22;11858;51.056;3.712;2022-10-15T10:55:18;20.30;99.90
23371;DHT22;11858;51.056;3.712;2022-10-15T10:57:48;20.40;99.90
23371;DHT22;11858;51.056;3.712;2022-10-15T11:00:24;20.10;99.90
23371;DHT22;11858;51.056;3.712;2022-10-15T11:02:53;20.00;99.90
23371;DHT22;11858;51.056;3.712;2022-10-15T11:05:25;20.10;99.90
23371;DHT22;11858;51.056;3.712;2022-10-15T11:13:43;19.40;99.90
23371;DHT22;11858;51.056;3.712;2022-10-15T11:16:31;19.20;99.90
23371;DHT22;11858;51.056;3.712;2022-10-15T11:19:33;19.20;99.90
23371;DHT22;11858;51.056;3.712;2022-10-15T11:30:40;22.60;99.90
23371;DHT22;11858;51.056;3.712;2022-10-15T11:33:22;23.50;99.90
23371;DHT22;11858;51.056;3.712;2022-10-15T11:39:05;24.70;99.90
23371;DHT22;11858;51.056;3.712;2022-10-15T11:42:38;23.80;99.90
23371;DHT22;11858;51.056;3.712;2022-10-15T11:50:20;22.60;99.90
23371;DHT22;11858;51.056;3.712;2022-10-15T11:58:00;22.40;99.90
23371;DHT22;11858;51.056;3.712;2022-10-15T12:03:06;23.00;99.90
23371;DHT22;11858;51.056;3.712;2022-10-15T12:05:53;23.20;99.90
23371;DHT22;11858;51.056;3.712;2022-10-15T12:08:21;22.90;99.90
23371;DHT22;11858;51.056;3.712;2022-10-15T12:14:04;23.20;99.90
23371;DHT22;11858;51.056;3.712;2022-10-15T12:19:36;22.70;99.90
23371;DHT22;11858;51.056;3.712;2022-10-15T12:22:08;22.10;99.90
23371;DHT22;11858;51.056;3.712;2022-10-15T12:29:52;21.30;99.90
23371;DHT22;11858;51.056;3.712;2022-10-15T12:32:44;21.50;99.90
23371;DHT22;11858;51.056;3.712;2022-10-15T12:35:20;22.10;99.90
23371;DHT22;11858;51.056;3.712;2022-10-15T12:37:47;23.00;99.90
23371;DHT22;11858;51.056;3.712;2022-10-15T12:45:23;23.60;99.90
23371;DHT22;11858;51.056;3.712;2022-10-15T12:47:55;23.80;99.90
23371;DHT22;11858;51.056;3.712;2022-10-15T12:50:36;24.20;99.90
23371;DHT22;11858;51.056;3.712;2022-10-15T13:01:26;22.80;99.90
23371;DHT22;11858;51.056;3.712;2022-10-15T13:03:57;22.70;99.90
23371;DHT22;11858;51.056;3.712;2022-10-15T13:06:31;22.20;99.90
23371;DHT22;11858;51.056;3.712;2022-10-15T13:11:46;21.30;99.90
23371;DHT22;11858;51.056;3.712;2022-10-15T13:16:57;21.90;99.90
23371;DHT22;11858;51.056;3.712;2022-10-15T13:19:29;22.00;99.90
23371;DHT22;11858;51.056;3.712;2022-10-15T13:21:59;21.90;99.90
23371;DHT22;11858;51.056;3.712;2022-10-15T13:24:27;21.60;99.90
23371;DHT22;11858;51.056;3.712;2022-10-15T13:26:55;22.00;99.90
23371;DHT22;11858;51.056;3.712;2022-10-15T13:29:25;23.00;99.90
23371;DHT22;11858;51.056;3.712;2022-10-15T13:31:52;24.00;99.90
23371;DHT22;11858;51.056;3.712;2022-10-15T13:34:29;23.80;99.90
23371;DHT22;11858;51.056;3.712;2022-10-15T13:36:58;23.40;99.90
23371;DHT22;11858;51.056;3.712;2022-10-15T13:39:38;23.30;99.90
23371;DHT22;11858;51.056;3.712;2022-10-15T13:42:15;23.80;99.90
23371;DHT22;11858;51.056;3.712;2022-10-15T13:44:43;23.80;99.90
23371;DHT22;11858;51.056;3.712;2022-10-15T13:47:25;23.60;99.90
23371;DHT22;11858;51.056;3.712;2022-10-15T13:49:51;24.10;99.90
23371;DHT22;11858;51.056;3.712;2022-10-15T13:52:16;24.40;99.90
23371;DHT22;11858;51.056;3.712;2022-10-15T13:54:46;24.90;99.90
23371;DHT22;11858;51.056;3.712;2022-10-15T13:57:14;25.30;99.90
23371;DHT22;11858;51.056;3.712;2022-10-15T13:59:44;26.10;99.90
23371;DHT22;11858;51.056;3.712;2022-10-15T14:02:11;25.90;99.90
23371;DHT22;11858;51.056;3.712;2022-10-15T14:04:37;26.20;99.90
23371;DHT22;11858;51.056;3.712;2022-10-15T14:07:17;26.30;99.90
23371;DHT22;11858;51.056;3.712;2022-10-15T14:09:45;26.60;99.90
23371;DHT22;11858;51.056;3.712;2022-10-15T14:12:12;26.00;99.90
23371;DHT22;11858;51.056;3.712;2022-10-15T14:14:43;25.90;99.90
23371;DHT22;11858;51.056;3.712;2022-10-15T14:17:22;25.80;99.90
23371;DHT22;11858;51.056;3.712;2022-10-15T14:20:02;26.00;99.90
23371;DHT22;11858;51.056;3.712;2022-10-15T14:22:28;26.30;99.90
23371;DHT22;11858;51.056;3.712;2022-10-15T14:24:55;26.20;99.90
23371;DHT22;11858;51.056;3.712;2022-10-15T14:27:25;26.30;99.90
23371;DHT22;11858;51.056;3.712;2022-10-15T14:29:53;25.40;99.90
23371;DHT22;11858;51.056;3.712;2022-10-15T14:32:41;24.70;99.90
23371;DHT22;11858;51.056;3.712;2022-10-15T14:37:58;24.30;99.90
23371;DHT22;11858;51.056;3.712;2022-10-15T14:40:24;24.30;99.90
23371;DHT22;11858;51.056;3.712;2022-10-15T14:45:25;23.80;99.90
23371;DHT22;11858;51.056;3.712;2022-10-15T14:47:59;23.60;99.90
23371;DHT22;11858;51.056;3.712;2022-10-15T14:50:31;24.10;99.90
23371;DHT22;11858;51.056;3.712;2022-10-15T14:52:57;24.30;99.90
23371;DHT22;11858;51.056;3.712;2022-10-15T14:55:32;24.50;99.90
23371;DHT22;11858;51.056;3.712;2022-10-15T14:58:07;24.90;99.90
23371;DHT22;11858;51.056;3.712;2022-10-15T15:00:42;24.40;99.90
23371;DHT22;11858;51.056;3.712;2022-10-15T15:03:38;24.10;99.90
23371;DHT22;11858;51.056;3.712;2022-10-15T15:06:05;24.40;99.90
23371;DHT22;11858;51.056;3.712;2022-10-15T15:08:31;24.40;99.90
23371;DHT22;11858;51.056;3.712;2022-10-15T15:10:59;24.30;99.90
23371;DHT22;11858;51.056;3.712;2022-10-15T15:13:28;24.00;99.90
23371;DHT22;11858;51.056;3.712;2022-10-15T15:15:54;23.30;99.90
23371;DHT22;11858;51.056;3.712;2022-10-15T15:18:20;22.90;99.90
23371;DHT22;11858;51.056;3.712;2022-10-15T15:20:47;22.50;99.90
23371;DHT22;11858;51.056;3.712;2022-10-15T15:23:17;22.50;99.90
23371;DHT22;11858;51.056;3.712;2022-10-15T15:25:50;22.50;99.90
23371;DHT22;11858;51.056;3.712;2022-10-15T15:28:18;22.90;99.90
23371;DHT22;11858;51.056;3.712;2022-10-15T15:30:54;22.80;99.90
23371;DHT22;11858;51.056;3.712;2022-10-15T15:33:20;22.20;99.90
23371;DHT22;11858;51.056;3.712;2022-10-15T15:35:55;21.60;99.90
23371;DHT22;11858;51.056;3.712;2022-10-15T15:38:23;21.30;99.90
23371;DHT22;11858;51.056;3.712;2022-10-15T15:41:11;20.90;99.90
23371;DHT22;11858;51.056;3.712;2022-10-15T15:43:37;20.80;99.90
23371;DHT22;11858;51.056;3.712;2022-10-15T15:46:03;20.40;99.90
23371;DHT22;11858;51.056;3.712;2022-10-15T15:48:29;20.30;99.90
23371;DHT22;11858;51.056;3.712;2022-10-15T15:51:04;20.00;99.90
23371;DHT22;11858;51.056;3.712;2022-10-15T15:53:30;19.80;99.90
23371;DHT22;11858;51.056;3.712;2022-10-15T15:55:56;19.70;99.90
23371;DHT22;11858;51.056;3.712;2022-10-15T15:58:22;19.80;99.90
23371;DHT22;11858;51.056;3.712;2022-10-15T16:00:48;19.70;99.90
23371;DHT22;11858;51.056;3.712;2022-10-15T16:03:14;19.70;99.90
23371;DHT22;11858;51.056;3.712;2022-10-15T16:05:40;19.60;99.90
23371;DHT22;11858;51.056;3.712;2022-10-15T16:08:07;19.50;99.90
23371;DHT22;11858;51.056;3.712;2022-10-15T16:10:33;19.60;99.90
23371;DHT22;11858;51.056;3.712;2022-10-15T16:13:00;19.50;99.90
23371;DHT22;11858;51.056;3.712;2022-10-15T16:15:25;19.30;99.90
23371;DHT22;11858;51.056;3.712;2022-10-15T16:17:51;19.20;99.90
23371;DHT22;11858;51.056;3.712;2022-10-15T16:20:17;19.10;99.90
23371;DHT22;11858;51.056;3.712;2022-10-15T16:22:43;19.10;99.90
23371;DHT22;11858;51.056;3.712;2022-10-15T16:25:09;18.90;99.90
23371;DHT22;11858;51.056;3.712;2022-10-15T16:27:34;18.90;99.90
23371;DHT22;11858;51.056;3.712;2022-10-15T16:30:01;18.70;99.90
23371;DHT22;11858;51.056;3.712;2022-10-15T16:32:27;18.70;99.90
23371;DHT22;11858;51.056;3.712;2022-10-15T16:34:53;18.50;99.90
23371;DHT22;11858;51.056;3.712;2022-10-15T16:37:18;18.40;99.90
23371;DHT22;11858;51.056;3.712;2022-10-15T16:39:44;18.20;99.90
23371;DHT22;11858;51.056;3.712;2022-10-15T16:42:10;18.10;99.90
23371;DHT22;11858;51.056;3.712;2022-10-15T16:44:38;18.00;99.90
23371;DHT22;11858;51.056;3.712;2022-10-15T16:47:03;17.80;99.90
23371;DHT22;11858;51.056;3.712;2022-10-15T16:49:29;17.80;99.90
23371;DHT22;11858;51.056;3.712;2022-10-15T16:51:55;17.70;99.90
23371;DHT22;11858;51.056;3.712;2022-10-15T16:54:20;17.60;99.90
23371;DHT22;11858;51.056;3.712;2022-10-15T16:56:46;17.60;99.90
23371;DHT22;11858;51.056;3.712;2022-10-15T16:59:12;17.60;99.90
23371;DHT22;11858;51.056;3.712;2022-10-15T17:01:37;17.60;99.90
23371;DHT22;11858;51.056;3.712;2022-10-15T17:04:03;17.50;99.90
23371;DHT22;11858;51.056;3.712;2022-10-15T17:06:30;17.50;99.90
23371;DHT22;11858;51.056;3.712;2022-10-15T17:08:57;17.50;99.90
23371;DHT22;11858;51.056;3.712;2022-10-15T17:11:37;17.50;99.90
23371;DHT22;11858;51.056;3.712;2022-10-15T17:14:06;17.50;99.90
23371;DHT22;11858;51.056;3.712;2022-10-15T17:16:39;17.40;99.90
23371;DHT22;11858;51.056;3.712;2022-10-15T17:19:05;17.30;99.90
23371;DHT22;11858;51.056;3.712;2022-10-15T17:21:31;17.20;99.90
23371;DHT22;11858;51.056;3.712;2022-10-15T17:23:59;17.40;99.90
23371;DHT22;11858;51.056;3.712;2022-10-15T17:26:30;17.20;99.90
23371;DHT22;11858;51.056;3.712;2022-10-15T17:29:04;17.20;99.90
23371;DHT22;11858;51.056;3.712;2022-10-15T17:31:31;17.10;99.90
23371;DHT22;11858;51.056;3.712;2022-10-15T17:33:59;17.10;99.90